TimeMDT,TemperatureF,Dew PointF,Humidity,Sea Level PressureIn,VisibilityMPH,Wind Direction,Wind SpeedMPH,Gust SpeedMPH,PrecipitationIn,Events,Conditions,WindDirDegrees,DateUTC
12:53 AM,15.1,10.9,84,30.18,10.0,South,6.9,-,N/A,,Clear,190,2013-04-10 06:53:00
1:53 AM,14.0,10.0,84,30.18,10.0,SSW,6.9,-,N/A,,Partly Cloudy,200,2013-04-10 07:53:00
2:26 AM,12.2,8.6,85,30.07,10.0,Calm,Calm,-,N/A,,Scattered Clouds,0,2013-04-10 08:26:00
2:37 AM,14.0,10.4,86,30.07,10.0,Calm,Calm,-,N/A,,Mostly Cloudy,0,2013-04-10 08:37:00
2:53 AM,12.9,9.0,84,30.17,10.0,Calm,Calm,-,N/A,,Mostly Cloudy,0,2013-04-10 08:53:00
3:02 AM,12.2,8.6,85,30.07,10.0,Calm,Calm,-,N/A,,Scattered Clouds,0,2013-04-10 09:02:00
3:34 AM,12.2,8.6,85,30.07,10.0,SSE,3.5,-,N/A,,Mostly Cloudy,160,2013-04-10 09:34:00
3:53 AM,12.9,10.0,88,30.17,10.0,ESE,3.5,-,N/A,,Overcast,120,2013-04-10 09:53:00
4:30 AM,12.2,10.4,92,30.07,10.0,SSE,3.5,-,N/A,,Scattered Clouds,160,2013-04-10 10:30:00
4:53 AM,12.9,9.0,84,30.18,10.0,Calm,Calm,-,N/A,,Clear,0,2013-04-10 10:53:00
5:41 AM,10.4,8.6,92,30.08,10.0,Calm,Calm,-,N/A,,Mostly Cloudy,0,2013-04-10 11:41:00
5:53 AM,12.0,9.0,88,30.19,10.0,Calm,Calm,-,N/A,,Overcast,0,2013-04-10 11:53:00
6:53 AM,14.0,10.9,88,30.20,10.0,West,3.5,-,N/A,,Overcast,260,2013-04-10 12:53:00
7:53 AM,15.1,12.9,91,30.22,10.0,WNW,4.6,-,N/A,,Overcast,300,2013-04-10 13:53:00
8:53 AM,18.0,14.0,84,30.21,8.0,WNW,4.6,-,N/A,,Overcast,290,2013-04-10 14:53:00
9:21 AM,17.6,14.0,86,30.10,9.0,WSW,3.5,-,N/A,,Overcast,250,2013-04-10 15:21:00
9:53 AM,19.0,15.1,85,30.22,10.0,Variable,3.5,-,N/A,,Overcast,0,2013-04-10 15:53:00
10:53 AM,19.0,15.1,85,30.23,10.0,SSW,3.5,-,N/A,,Mostly Cloudy,210,2013-04-10 16:53:00
11:05 AM,19.4,15.8,86,30.09,10.0,SW,8.1,-,N/A,,Partly Cloudy,230,2013-04-10 17:05:00
11:53 AM,21.2,17.6,86,30.08,10.0,WSW,6.9,-,N/A,,Clear,240,2013-04-10 17:53:00
12:53 PM,25.0,18.0,75,30.15,10.0,SW,6.9,-,N/A,,Clear,220,2013-04-10 18:53:00
1:53 PM,30.9,21.9,69,30.08,10.0,SW,10.4,-,N/A,,Clear,230,2013-04-10 19:53:00
2:53 PM,42.1,25.0,51,30.00,10.0,NNW,23.0,26.5,N/A,,Overcast,330,2013-04-10 20:53:00
3:05 PM,42.8,24.8,49,29.97,10.0,NNW,16.1,26.5,N/A,,Mostly Cloudy,340,2013-04-10 21:05:00
3:53 PM,42.1,25.0,51,29.98,10.0,NNW,17.3,23.0,N/A,,Clear,340,2013-04-10 21:53:00
4:53 PM,42.1,24.1,49,29.94,10.0,NNW,24.2,29.9,N/A,,Clear,340,2013-04-10 22:53:00
5:53 PM,42.1,24.1,49,29.96,10.0,NNW,20.7,29.9,N/A,,Clear,340,2013-04-10 23:53:00
6:53 PM,37.9,24.1,57,29.95,10.0,NNW,26.5,33.4,N/A,,Clear,330,2013-04-11 00:53:00
7:53 PM,37.0,24.1,59,29.96,10.0,NNW,21.9,28.8,N/A,,Clear,340,2013-04-11 01:53:00
8:53 PM,36.0,24.1,62,29.95,10.0,North,11.5,-,N/A,,Clear,360,2013-04-11 02:53:00
9:53 PM,36.0,25.0,64,29.96,10.0,NNW,9.2,18.4,N/A,,Clear,330,2013-04-11 03:53:00
10:53 PM,33.1,25.0,72,29.96,10.0,Calm,Calm,-,N/A,,Overcast,0,2013-04-11 04:53:00
11:53 PM,33.1,26.1,75,29.92,10.0,SE,5.8,-,N/A,,Overcast,140,2013-04-11 05:53:00